Portada
METAR-TAF:

METAR-TAF

Aeroports :

Gaborone, Botswana

latitud: 24-13S, longitud: 025-55E, altitud: 1005 m

Observació

L'informe es va fer fa 18 minuts, a les 12:00 UTC
Vent 5 kt del Sud, variant entre Est i Oest
Temperatura 17°C
Humitat 19%
Pressió 1022 hPa
Visibilitat 10 km o més
sense núvols per sota de 1500 mi sense presència de cumulonimbus.

METAR: FBSK 271200Z 17005KT 100V260 CAVOK 17/M07 Q1022 NOSIG

Hora: 14:18 (12:18 UTC)

Pronòstic

L'informe es va fer fa 2 hores i 18 minuts, a les 10:00 UTC
Pronòstic vàlid del 27 a les 12 UTC al 28 a les 18 UTC
Vent 10 kt del Sud/Sud-Oest
Visibilitat 10 km o més
sense núvols per sota de 1500 mi sense presència de cumulonimbus.

TAF: FBSK 271000Z 2712/2818 20010KT CAVOK

Observacions i pronòstics meteorològics de més de 4000 aeroports (METAR i TAF).

Les estacions disponibles són els punts grocs i vermells al mapa.

Posi el ratolí al punt desitjat per veure el nom de l'estació.

Feu clic per veure les observacions i els pronòstics meteorològics.

Per canviar el mapa: feu clic els botons verds amb una creu de color negre per apropar; al botó verd amb un guió per allunyar la imatge; o en les fletxes verdes per a mapes adjacents.


METAR-TAF: